Time;durP1;ratioP1;P1;durP2;ratioP2;P2;SDS_P1;SDS_P2;PMS_P1;PMS_P2;Temp;Humidity;BMP_temperature;BMP_pressure;BME280_temperature;BME280_humidity;BME280_pressure;Samples;Min_cycle;Max_cycle;Signal;HPM_P1;HPM_P2
2021/01/24 00:01:12;;;;;;;15.77;8.83;;;;;;;-0.84;100.00;98931.25;4977804;28;20604;-73
2021/01/24 00:03:38;;;;;;;18.40;8.87;;;;;;;-0.82;100.00;98937.19;4984537;28;20596;-73
2021/01/24 00:06:04;;;;;;;19.10;8.87;;;;;;;-0.82;100.00;98926.13;4981615;28;20365;-73
2021/01/24 00:08:30;;;;;;;18.70;8.70;;;;;;;-0.81;100.00;98923.53;4982849;28;20209;-73
2021/01/24 00:10:56;;;;;;;19.83;8.10;;;;;;;-0.82;100.00;98926.13;5014378;28;20841;-73
2021/01/24 00:13:22;;;;;;;20.10;9.13;;;;;;;-0.82;100.00;98926.94;4982859;28;20221;-73
2021/01/24 00:15:48;;;;;;;14.77;7.53;;;;;;;-0.82;100.00;98931.22;4981752;28;20222;-73
2021/01/24 00:18:14;;;;;;;20.13;8.70;;;;;;;-0.83;100.00;98925.25;4980202;28;20205;-73
2021/01/24 00:20:40;;;;;;;21.17;9.80;;;;;;;-0.83;100.00;98930.34;4981954;28;20248;-73
2021/01/24 00:23:06;;;;;;;19.27;9.37;;;;;;;-0.82;100.00;98921.84;4981675;28;20206;-73
2021/01/24 00:25:32;;;;;;;18.53;9.10;;;;;;;-0.81;100.00;98925.22;4980469;28;20201;-74
2021/01/24 00:27:58;;;;;;;21.23;8.60;;;;;;;-0.78;100.00;98922.66;4987118;28;20201;-73
2021/01/24 00:30:24;;;;;;;23.20;8.87;;;;;;;-0.79;100.00;98929.50;4986605;28;20709;-73
2021/01/24 00:32:50;;;;;;;19.80;8.23;;;;;;;-0.78;100.00;98933.75;4988287;28;20201;-73
2021/01/24 00:35:17;;;;;;;19.27;9.13;;;;;;;-0.79;100.00;98921.81;4985274;28;20217;-73
2021/01/24 00:37:43;;;;;;;19.03;8.50;;;;;;;-0.77;100.00;98927.78;4985106;28;20207;-73
2021/01/24 00:40:09;;;;;;;18.47;8.63;;;;;;;-0.77;100.00;98929.50;4988604;28;20775;-73
2021/01/24 00:42:36;;;;;;;17.90;8.03;;;;;;;-0.77;100.00;98924.38;4984014;28;20755;-73
2021/01/24 00:45:04;;;;;;;16.17;7.70;;;;;;;-0.75;100.00;98920.09;4977168;28;20211;-73
2021/01/24 00:47:30;;;;;;;16.60;7.87;;;;;;;-0.74;100.00;98926.03;4986837;28;20640;-73
2021/01/24 00:49:57;;;;;;;17.27;7.90;;;;;;;-0.73;100.00;98920.91;5014665;28;20213;-73
2021/01/24 00:52:24;;;;;;;16.93;7.97;;;;;;;-0.75;100.00;98914.97;4982610;28;20216;-73
2021/01/24 00:54:50;;;;;;;17.13;7.60;;;;;;;-0.74;100.00;98918.38;5002543;28;20236;-73
2021/01/24 00:57:16;;;;;;;15.17;7.70;;;;;;;-0.72;100.00;98916.63;5001095;28;20211;-73
2021/01/24 00:59:42;;;;;;;17.50;7.57;;;;;;;-0.72;100.00;98919.19;4987079;28;20249;-73
2021/01/24 01:02:08;;;;;;;15.23;7.27;;;;;;;-0.73;100.00;98912.41;4989309;28;20570;-73
2021/01/24 01:04:34;;;;;;;16.90;8.20;;;;;;;-0.73;100.00;98908.13;4984683;28;20206;-73
2021/01/24 01:07:00;;;;;;;15.13;7.90;;;;;;;-0.73;100.00;98910.69;5010772;28;20308;-73
2021/01/24 01:09:26;;;;;;;16.03;7.43;;;;;;;-0.74;100.00;98908.13;4988042;28;20234;-73
2021/01/24 01:11:52;;;;;;;17.67;7.90;;;;;;;-0.74;100.00;98908.97;5001801;28;20670;-73
2021/01/24 01:14:18;;;;;;;14.10;7.17;;;;;;;-0.73;100.00;98907.28;4991221;28;20602;-73
2021/01/24 01:16:44;;;;;;;14.77;7.07;;;;;;;-0.72;100.00;98912.41;4989438;28;20587;-73
2021/01/24 01:19:10;;;;;;;15.20;7.10;;;;;;;-0.71;100.00;98906.41;4984476;28;20210;-73
2021/01/24 01:21:36;;;;;;;13.80;6.33;;;;;;;-0.71;100.00;98900.44;4983612;28;20276;-73
2021/01/24 01:24:03;;;;;;;16.40;7.33;;;;;;;-0.69;100.00;98906.38;4984425;28;20197;-73
2021/01/24 01:26:28;;;;;;;13.83;7.23;;;;;;;-0.68;100.00;98903.81;4989020;28;20237;-73
2021/01/24 01:28:54;;;;;;;17.43;6.97;;;;;;;-0.70;100.00;98905.53;4982633;28;20209;-73
2021/01/24 01:31:20;;;;;;;14.67;7.07;;;;;;;-0.68;100.00;98908.94;4985319;28;20229;-73
2021/01/24 01:33:46;;;;;;;12.90;6.70;;;;;;;-0.68;100.00;98906.38;4982478;28;20398;-73
2021/01/24 01:36:13;;;;;;;14.33;7.27;;;;;;;-0.68;100.00;98902.97;4984588;28;20213;-73
2021/01/24 01:38:39;;;;;;;17.73;6.77;;;;;;;-0.67;100.00;98902.97;4985099;28;20263;-73
2021/01/24 01:41:05;;;;;;;13.30;6.20;;;;;;;-0.67;100.00;98908.09;4977729;28;20248;-72
2021/01/24 01:43:32;;;;;;;13.20;6.50;;;;;;;-0.69;100.00;98906.38;4985952;28;20197;-73
2021/01/24 01:45:58;;;;;;;16.77;7.40;;;;;;;-0.68;100.00;98900.41;4985659;28;20252;-73
2021/01/24 01:48:24;;;;;;;15.13;7.00;;;;;;;-0.67;100.00;98896.97;4984432;28;20284;-73
2021/01/24 01:50:50;;;;;;;14.57;6.67;;;;;;;-0.69;100.00;98896.16;4986953;28;20221;-73
2021/01/24 01:53:17;;;;;;;11.70;6.30;;;;;;;-0.67;100.00;98897.84;4985349;28;20570;-72
2021/01/24 01:55:42;;;;;;;12.23;6.10;;;;;;;-0.68;100.00;98902.97;4985013;28;20201;-73
2021/01/24 01:58:08;;;;;;;12.17;6.37;;;;;;;-0.64;100.00;98908.03;4981502;28;20205;-73
2021/01/24 02:00:34;;;;;;;13.13;6.73;;;;;;;-0.63;100.00;98902.06;4985425;28;20253;-73
2021/01/24 02:03:18;;;;;;;12.87;6.20;;;;;;;-0.66;100.00;98902.09;4983120;28;20212;-73
2021/01/24 02:05:54;;;;;;;12.07;6.23;;;;;;;-0.69;100.00;98885.91;4982844;28;20609;-73
2021/01/24 02:08:27;;;;;;;13.43;7.00;;;;;;;-0.73;100.00;98886.81;4982388;28;20271;-73
2021/01/24 02:11:01;;;;;;;13.73;6.63;;;;;;;-0.70;100.00;98889.31;4987190;28;20232;-73
2021/01/24 02:13:36;;;;;;;10.00;5.33;;;;;;;-0.71;100.00;98883.34;4981557;28;20205;-72
2021/01/24 02:16:04;;;;;;;12.87;6.50;;;;;;;-0.74;100.00;98879.97;4986063;28;20228;-73
2021/01/24 02:18:33;;;;;;;11.53;5.30;;;;;;;-0.76;100.00;98872.31;4983237;28;20669;-73
2021/01/24 02:21:05;;;;;;;11.83;6.30;;;;;;;-0.78;100.00;98869.75;4984789;28;20598;-73
2021/01/24 02:23:33;;;;;;;12.73;5.77;;;;;;;-0.78;100.00;98872.31;4988017;28;20633;-73
2021/01/24 02:26:05;;;;;;;13.60;5.90;;;;;;;-0.78;100.00;98871.47;4984034;28;20205;-73
2021/01/24 02:28:44;;;;;;;10.73;5.50;;;;;;;-0.82;100.00;98870.66;4970472;28;20665;-72
2021/01/24 02:31:11;;;;;;;11.27;6.07;;;;;;;-0.81;100.00;98874.06;4981518;28;20230;-73
2021/01/24 02:33:39;;;;;;;12.40;5.97;;;;;;;-0.82;100.00;98877.50;5003394;28;20259;-73
2021/01/24 02:36:07;;;;;;;10.83;5.67;;;;;;;-0.80;100.00;98870.66;4979225;28;20828;-73
2021/01/24 02:38:33;;;;;;;11.00;5.80;;;;;;;-0.78;100.00;98879.16;4987258;28;20811;-73
2021/01/24 02:41:00;;;;;;;12.97;6.00;;;;;;;-0.79;100.00;98877.47;4984426;28;20238;-73
2021/01/24 02:43:27;;;;;;;13.57;6.57;;;;;;;-0.78;100.00;98874.88;4981192;28;20216;-73
2021/01/24 02:45:53;;;;;;;10.00;5.27;;;;;;;-0.77;100.00;98871.47;4985087;28;20205;-73
2021/01/24 02:48:20;;;;;;;10.93;5.40;;;;;;;-0.78;100.00;98868.91;4986010;28;20201;-73
2021/01/24 02:50:47;;;;;;;10.33;4.83;;;;;;;-0.80;100.00;98868.94;4979125;28;20218;-73
2021/01/24 02:53:13;;;;;;;10.67;5.93;;;;;;;-0.80;100.00;98868.09;5023239;23;20235;-79
2021/01/24 02:55:40;;;;;;;10.67;5.67;;;;;;;-0.83;100.00;98862.97;5017461;28;20227;-79
2021/01/24 02:58:06;;;;;;;12.93;6.87;;;;;;;-0.86;100.00;98861.31;5026861;28;20205;-78
2021/01/24 03:00:32;;;;;;;12.07;6.00;;;;;;;-0.86;100.00;98866.44;5026458;28;20288;-79
2021/01/24 03:02:58;;;;;;;9.50;5.30;;;;;;;-0.85;100.00;98865.56;5026370;28;20215;-78
2021/01/24 03:05:25;;;;;;;10.27;6.17;;;;;;;-0.86;100.00;98861.31;5027866;28;20269;-79
2021/01/24 03:07:51;;;;;;;10.57;5.43;;;;;;;-0.85;100.00;98859.59;5028372;28;20232;-79
2021/01/24 03:10:18;;;;;;;10.53;5.00;;;;;;;-0.85;100.00;98867.28;5028644;28;20217;-79
2021/01/24 03:12:50;;;;;;;11.47;5.60;;;;;;;-0.86;100.00;98875.78;5029965;28;20617;-79
2021/01/24 03:15:18;;;;;;;11.17;5.50;;;;;;;-0.85;100.00;98872.38;5032201;28;20298;-79
2021/01/24 03:17:46;;;;;;;10.23;5.23;;;;;;;-0.86;100.00;98861.31;5030808;28;20213;-79
2021/01/24 03:20:15;;;;;;;10.87;5.57;;;;;;;-0.85;100.00;98864.72;5031439;28;20196;-79
2021/01/24 03:22:43;;;;;;;10.70;5.77;;;;;;;-0.84;100.00;98862.16;5030511;28;20222;-79
2021/01/24 03:25:11;;;;;;;8.53;5.37;;;;;;;-0.84;100.00;98862.16;5029779;28;20698;-77
2021/01/24 03:27:37;;;;;;;10.17;5.17;;;;;;;-0.82;100.00;98857.84;5022540;28;20204;-77
2021/01/24 03:30:04;;;;;;;12.23;6.07;;;;;;;-0.83;100.00;98863.81;5026207;28;20191;-77
2021/01/24 03:32:30;;;;;;;14.23;6.27;;;;;;;-0.84;100.00;98872.38;5020805;28;20555;-76
2021/01/24 03:34:56;;;;;;;13.50;5.73;;;;;;;-0.84;100.00;98857.03;5023333;28;20230;-77
2021/01/24 03:37:22;;;;;;;14.00;6.47;;;;;;;-0.84;100.00;98851.06;5025792;28;20217;-77
2021/01/24 03:39:49;;;;;;;13.67;5.90;;;;;;;-0.85;100.00;98857.88;5024925;28;20252;-77
2021/01/24 03:42:15;;;;;;;15.93;6.43;;;;;;;-0.86;100.00;98856.19;5025648;28;20234;-77
2021/01/24 03:44:40;;;;;;;13.93;6.67;;;;;;;-0.87;100.00;98856.19;5007358;28;20690;-77
2021/01/24 03:47:06;;;;;;;11.23;5.60;;;;;;;-0.84;100.00;98851.06;5029318;28;20709;-77
2021/01/24 03:49:32;;;;;;;13.47;6.73;;;;;;;-0.85;100.00;98847.63;5008575;28;20250;-77
2021/01/24 03:51:58;;;;;;;15.20;6.87;;;;;;;-0.85;100.00;98854.47;5022114;28;20290;-76
2021/01/24 03:54:24;;;;;;;13.13;6.40;;;;;;;-0.88;100.00;98854.50;5021479;28;20726;-77
2021/01/24 03:56:50;;;;;;;17.17;7.70;;;;;;;-0.88;100.00;98850.25;5026605;28;20216;-77
2021/01/24 03:59:42;;;;;;;22.30;10.10;;;;;;;-0.88;100.00;98845.13;5027802;28;20599;-77
2021/01/24 04:02:08;;;;;;;31.57;14.57;;;;;;;-0.89;100.00;98847.69;5028429;28;20326;-77
2021/01/24 04:04:34;;;;;;;20.80;10.50;;;;;;;-0.91;100.00;98837.47;5032797;28;20676;-77
2021/01/24 04:06:59;;;;;;;18.37;8.63;;;;;;;-0.92;100.00;98827.25;5029058;28;20343;-76
2021/01/24 04:09:25;;;;;;;12.93;6.60;;;;;;;-0.95;100.00;98817.88;5034630;28;20614;-77
2021/01/24 04:11:52;;;;;;;12.40;6.03;;;;;;;-0.95;100.00;98817.88;5029949;28;20540;-78
2021/01/24 04:14:18;;;;;;;16.30;7.13;;;;;;;-0.99;100.00;98814.47;5030244;28;20202;-77
2021/01/24 04:16:43;;;;;;;12.57;6.37;;;;;;;-0.98;100.00;98823.88;5025228;28;20224;-77
2021/01/24 04:19:09;;;;;;;13.17;5.67;;;;;;;-0.98;100.00;98829.00;5033258;28;20278;-77
2021/01/24 04:21:35;;;;;;;11.23;6.00;;;;;;;-0.97;100.00;98828.13;5034829;28;20770;-77
2021/01/24 04:24:01;;;;;;;14.53;6.63;;;;;;;-0.96;100.00;98822.16;5010737;28;20207;-77
2021/01/24 04:26:27;;;;;;;12.57;5.73;;;;;;;-0.99;100.00;98818.75;5029490;28;20229;-77
2021/01/24 04:28:53;;;;;;;11.10;5.63;;;;;;;-0.99;100.00;98818.75;5030937;28;20219;-77
2021/01/24 04:31:19;;;;;;;14.73;6.03;;;;;;;-0.98;100.00;98813.63;5032078;28;20443;-77
2021/01/24 04:33:45;;;;;;;13.17;5.93;;;;;;;-1.01;100.00;98817.94;5030773;28;20608;-77
2021/01/24 04:36:11;;;;;;;9.97;5.27;;;;;;;-1.01;100.00;98816.22;5031181;28;20238;-77
2021/01/24 04:38:37;;;;;;;10.03;4.87;;;;;;;-0.99;100.00;98823.88;5029287;28;20555;-77
2021/01/24 04:41:03;;;;;;;12.67;5.40;;;;;;;-0.98;100.00;98825.59;5029740;28;20209;-77
2021/01/24 04:43:29;;;;;;;12.63;5.60;;;;;;;-0.98;100.00;98828.16;5030489;28;20217;-77
2021/01/24 04:45:56;;;;;;;11.17;5.17;;;;;;;-1.00;100.00;98823.03;5009935;28;20243;-77
2021/01/24 04:48:22;;;;;;;9.40;5.40;;;;;;;-1.01;100.00;98816.22;5037554;28;20208;-75
2021/01/24 04:50:48;;;;;;;11.30;5.30;;;;;;;-1.01;100.00;98807.69;5028408;28;20204;-77
2021/01/24 04:53:15;;;;;;;11.30;5.13;;;;;;;-1.03;100.00;98805.16;5028134;28;20203;-77
2021/01/24 04:55:41;;;;;;;10.43;5.07;;;;;;;-1.06;100.00;98805.16;5029257;28;20301;-77
2021/01/24 04:58:07;;;;;;;9.17;4.80;;;;;;;-1.07;100.00;98803.50;5031781;28;20379;-77
2021/01/24 05:00:34;;;;;;;10.43;4.90;;;;;;;-1.06;100.00;98800.06;5031711;28;20224;-77
2021/01/24 05:03:01;;;;;;;10.00;4.67;;;;;;;-1.06;100.00;98799.22;5033734;28;20226;-77
2021/01/24 05:05:27;;;;;;;9.87;4.80;;;;;;;-1.08;100.00;98794.09;5029320;28;21319;-76
2021/01/24 05:07:56;;;;;;;11.40;4.87;;;;;;;-1.10;100.00;98787.31;5013538;28;20200;-77
2021/01/24 05:10:23;;;;;;;10.17;4.73;;;;;;;-1.13;100.00;98783.06;5032817;28;20204;-77
2021/01/24 05:12:49;;;;;;;10.70;4.70;;;;;;;-1.11;100.00;98785.59;5023135;28;20324;-77
2021/01/24 05:15:15;;;;;;;10.77;4.63;;;;;;;-1.11;100.00;98789.00;5035773;28;20223;-77
2021/01/24 05:17:52;;;;;;;10.30;5.33;;;;;;;-1.11;100.00;98786.44;5028783;28;20200;-77
2021/01/24 05:20:21;;;;;;;12.20;5.93;;;;;;;-1.10;100.00;98782.19;5031746;28;20199;-77
2021/01/24 05:22:47;;;;;;;14.87;5.43;;;;;;;-1.09;100.00;98784.75;5029390;28;20197;-77
2021/01/24 05:25:16;;;;;;;10.33;5.43;;;;;;;-1.08;100.00;98783.03;5026469;28;20590;-76
2021/01/24 05:27:42;;;;;;;10.13;4.87;;;;;;;-1.10;100.00;98779.66;5032199;28;20559;-77
2021/01/24 05:30:12;;;;;;;9.60;5.10;;;;;;;-1.07;100.00;98794.94;5026802;28;20214;-77
2021/01/24 05:32:42;;;;;;;10.37;5.20;;;;;;;-1.07;100.00;98795.81;5038839;28;20204;-77
2021/01/24 05:35:10;;;;;;;11.20;5.53;;;;;;;-1.06;100.00;98796.66;5024426;28;20227;-77
2021/01/24 05:37:37;;;;;;;13.30;5.83;;;;;;;-1.06;100.00;98809.44;5029690;28;20211;-76
2021/01/24 05:40:05;;;;;;;12.97;5.30;;;;;;;-1.05;100.00;98806.88;5027874;28;20541;-77
2021/01/24 05:42:34;;;;;;;10.63;5.50;;;;;;;-1.04;100.00;98811.16;5029743;28;20231;-78
2021/01/24 05:45:00;;;;;;;11.57;5.70;;;;;;;-1.02;100.00;98811.97;5032943;28;20223;-76
2021/01/24 05:47:26;;;;;;;12.70;6.17;;;;;;;-1.02;100.00;98809.41;5030399;28;20200;-76
2021/01/24 05:49:52;;;;;;;10.07;5.37;;;;;;;-1.00;100.00;98810.25;5026876;28;20207;-76
2021/01/24 05:52:19;;;;;;;10.37;5.10;;;;;;;-0.99;100.00;98809.38;5028654;28;20208;-76
2021/01/24 05:54:46;;;;;;;11.27;6.00;;;;;;;-0.98;100.00;98813.63;5015308;28;20211;-76
2021/01/24 05:57:13;;;;;;;13.53;5.80;;;;;;;-0.99;100.00;98811.94;5026489;28;20232;-76
2021/01/24 05:59:53;;;;;;;12.73;6.10;;;;;;;-1.00;100.00;98806.84;5029792;28;20215;-77
2021/01/24 06:02:21;;;;;;;11.47;5.00;;;;;;;-1.01;100.00;98805.97;5024947;28;20229;-77
2021/01/24 06:04:48;;;;;;;11.27;5.50;;;;;;;-1.00;100.00;98809.41;5002505;28;20261;-76
2021/01/24 06:07:15;;;;;;;15.13;6.90;;;;;;;-1.01;100.00;98808.53;5027094;28;20207;-76
2021/01/24 06:09:42;;;;;;;15.20;6.40;;;;;;;-0.98;100.00;98812.78;5027087;28;20235;-77
2021/01/24 06:12:10;;;;;;;19.80;7.10;;;;;;;-0.99;100.00;98811.09;5009620;28;20211;-77
2021/01/24 06:14:38;;;;;;;15.47;7.30;;;;;;;-0.98;100.00;98802.56;5027977;28;20200;-77
2021/01/24 06:17:09;;;;;;;14.80;6.93;;;;;;;-0.99;100.00;98801.69;5010160;28;20675;-77
2021/01/24 06:19:43;;;;;;;16.40;7.33;;;;;;;-0.99;100.00;98791.47;5028109;28;20737;-77
2021/01/24 06:22:14;;;;;;;13.87;6.63;;;;;;;-0.98;100.00;98802.56;5025958;28;20299;-77
2021/01/24 06:24:44;;;;;;;13.90;6.97;;;;;;;-0.96;100.00;98800.84;5025273;28;20275;-76
2021/01/24 06:27:16;;;;;;;13.67;6.50;;;;;;;-0.94;100.00;98795.72;5028404;28;20283;-76
2021/01/24 06:29:46;;;;;;;22.13;8.10;;;;;;;-0.94;100.00;98793.16;5025635;28;20208;-77
2021/01/24 06:32:23;;;;;;;16.80;7.07;;;;;;;-0.96;100.00;98794.00;5029917;28;20659;-78
2021/01/24 06:34:49;;;;;;;16.27;7.03;;;;;;;-0.95;100.00;98797.41;5025909;28;20243;-77
2021/01/24 06:37:18;;;;;;;20.83;7.23;;;;;;;-0.94;100.00;98795.72;5028029;28;20584;-77
2021/01/24 06:39:51;;;;;;;14.13;6.33;;;;;;;-0.96;100.00;98799.13;5024289;28;20209;-77
2021/01/24 06:42:47;;;;;;;17.03;6.80;;;;;;;-0.97;100.00;98800.00;5026989;28;20208;-77
2021/01/24 06:45:40;;;;;;;12.30;5.67;;;;;;;-0.99;100.00;98786.34;5028202;28;20230;-77
2021/01/24 06:48:08;;;;;;;13.50;6.07;;;;;;;-0.98;100.00;98793.16;5031045;28;20569;-77
2021/01/24 06:50:36;;;;;;;10.60;4.97;;;;;;;-1.00;100.00;98787.22;5007513;28;20218;-76
2021/01/24 06:53:04;;;;;;;9.40;4.67;;;;;;;-1.00;100.00;98787.22;5029069;28;20285;-77
2021/01/24 06:55:30;;;;;;;12.73;5.97;;;;;;;-1.00;100.00;98789.78;5026536;28;20546;-77
2021/01/24 06:57:57;;;;;;;13.33;5.90;;;;;;;-1.01;100.00;98798.31;5024149;28;20204;-77
2021/01/24 07:00:24;;;;;;;10.33;4.93;;;;;;;-1.00;100.00;98804.28;5025890;28;20195;-77
2021/01/24 07:02:50;;;;;;;9.97;5.30;;;;;;;-1.01;100.00;98810.25;5023019;28;20200;-77
2021/01/24 07:05:22;;;;;;;11.00;5.17;;;;;;;-1.00;100.00;98806.84;5013902;28;20273;-77
2021/01/24 07:07:49;;;;;;;12.63;5.70;;;;;;;-1.00;100.00;98812.81;5027856;28;20342;-77
2021/01/24 07:10:42;;;;;;;11.67;5.70;;;;;;;-0.98;100.00;98816.19;5023432;28;20287;-77
2021/01/24 07:13:35;;;;;;;12.00;5.93;;;;;;;-0.98;100.00;98810.25;4999761;28;20227;-77
2021/01/24 07:16:03;;;;;;;12.47;6.07;;;;;;;-0.95;100.00;98817.88;5025112;28;20386;-77
2021/01/24 07:18:41;;;;;;;11.57;6.17;;;;;;;-0.92;100.00;98815.28;5022148;28;20567;-77
2021/01/24 07:21:07;;;;;;;9.73;5.13;;;;;;;-0.91;100.00;98818.72;5030641;28;20203;-77
2021/01/24 07:23:34;;;;;;;15.40;7.03;;;;;;;-0.90;100.00;98816.13;5030838;28;20204;-78
2021/01/24 07:26:03;;;;;;;10.87;5.60;;;;;;;-0.88;100.00;98816.97;5008062;28;20292;-77
2021/01/24 07:28:30;;;;;;;13.03;6.03;;;;;;;-0.86;100.00;98819.50;5021190;28;20254;-76
2021/01/24 07:31:01;;;;;;;13.57;6.53;;;;;;;-0.85;100.00;98828.88;5024575;28;20200;-77
2021/01/24 07:33:30;;;;;;;13.97;4.77;;;;;;;-0.83;100.00;98822.88;5028705;28;20552;-77
2021/01/24 07:35:57;;;;;;;12.07;5.63;;;;;;;-0.83;100.00;98822.03;5027126;28;20219;-77
2021/01/24 07:38:25;;;;;;;14.03;6.00;;;;;;;-0.83;100.00;98824.59;5022456;28;20207;-77
2021/01/24 07:40:52;;;;;;;16.33;8.07;;;;;;;-0.80;100.00;98830.53;5024578;28;20215;-78
2021/01/24 07:43:18;;;;;;;12.27;6.17;;;;;;;-0.78;100.00;98828.81;5010263;28;20239;-77
2021/01/24 07:45:45;;;;;;;12.27;5.43;;;;;;;-0.80;100.00;98830.53;5025805;28;20227;-77
2021/01/24 07:48:13;;;;;;;8.67;4.83;;;;;;;-0.75;100.00;98827.94;5023837;28;20216;-77
2021/01/24 07:50:38;;;;;;;12.40;5.70;;;;;;;-0.73;100.00;98830.50;5023111;28;20601;-78
2021/01/24 07:53:05;;;;;;;10.97;5.33;;;;;;;-0.71;100.00;98836.44;5025931;28;20211;-76
2021/01/24 07:55:31;;;;;;;10.50;5.37;;;;;;;-0.69;100.00;98827.03;5022948;28;20219;-76
2021/01/24 07:57:57;;;;;;;11.13;5.53;;;;;;;-0.71;100.00;98827.03;5023970;28;20231;-77
2021/01/24 08:00:24;;;;;;;14.50;6.77;;;;;;;-0.71;100.00;98821.94;5029654;28;20192;-76
2021/01/24 08:02:50;;;;;;;10.73;4.93;;;;;;;-0.71;100.00;98821.94;5023035;28;20236;-76
2021/01/24 08:05:17;;;;;;;12.23;5.80;;;;;;;-0.70;100.00;98825.31;5026410;28;20262;-77
2021/01/24 08:07:43;;;;;;;11.67;5.53;;;;;;;-0.71;100.00;98824.47;5028685;28;20214;-77
2021/01/24 08:10:09;;;;;;;15.20;6.33;;;;;;;-0.68;100.00;98831.31;5028437;28;20701;-78
2021/01/24 08:12:35;;;;;;;12.13;6.03;;;;;;;-0.65;100.00;98834.69;5028486;28;20277;-77
2021/01/24 08:15:01;;;;;;;14.50;6.37;;;;;;;-0.59;100.00;98826.94;5029733;28;20625;-78
2021/01/24 08:17:28;;;;;;;16.03;6.50;;;;;;;-0.56;100.00;98833.75;5009626;28;20267;-76
2021/01/24 08:19:56;;;;;;;18.60;8.83;;;;;;;-0.55;100.00;98827.75;5025668;28;20207;-77
2021/01/24 08:22:24;;;;;;;13.93;6.70;;;;;;;-0.54;100.00;98829.47;5033081;28;20219;-76
2021/01/24 08:24:50;;;;;;;27.77;14.63;;;;;;;-0.52;100.00;98830.28;5025538;28;20202;-78
2021/01/24 08:27:16;;;;;;;13.30;6.40;;;;;;;-0.50;100.00;98832.84;5028755;28;20606;-77
2021/01/24 08:29:42;;;;;;;16.33;6.10;;;;;;;-0.47;100.00;98833.66;5028816;28;20239;-77
2021/01/24 08:32:08;;;;;;;14.27;5.83;;;;;;;-0.47;100.00;98832.81;5030698;28;20192;-77
2021/01/24 08:34:35;;;;;;;15.63;6.77;;;;;;;-0.47;100.00;98832.81;5012835;28;20870;-77
2021/01/24 08:37:03;;;;;;;17.93;7.03;;;;;;;-0.48;100.00;98831.09;5027983;28;20222;-77
2021/01/24 08:39:31;;;;;;;12.57;6.70;;;;;;;-0.47;100.00;98841.34;5030654;28;20224;-77
2021/01/24 08:41:57;;;;;;;15.40;6.60;;;;;;;-0.48;100.00;98829.38;5028990;28;20228;-80
2021/01/24 08:44:23;;;;;;;17.60;6.23;;;;;;;-0.52;100.00;98835.41;5033239;28;20200;-80
2021/01/24 08:46:50;;;;;;;13.93;5.53;;;;;;;-0.48;100.00;98831.94;5034186;28;20265;-80
2021/01/24 08:49:21;;;;;;;12.07;5.53;;;;;;;-0.45;100.00;98829.34;5038870;28;20199;-80
2021/01/24 08:51:50;;;;;;;13.83;5.47;;;;;;;-0.41;100.00;98832.72;5041781;28;20203;-80
2021/01/24 08:54:23;;;;;;;13.33;5.60;;;;;;;-0.43;100.00;98837.88;5033797;28;20251;-80
2021/01/24 08:56:51;;;;;;;12.20;5.23;;;;;;;-0.43;100.00;98843.00;5034203;28;20235;-79
2021/01/24 08:59:18;;;;;;;16.83;6.30;;;;;;;-0.43;100.00;98843.00;5034197;28;20348;-80
2021/01/24 09:01:44;;;;;;;13.60;5.93;;;;;;;-0.43;100.00;98848.09;5036892;28;20223;-80
2021/01/24 09:04:19;;;;;;;14.70;6.40;;;;;;;-0.42;100.00;98844.69;5033835;28;20238;-80
2021/01/24 09:07:05;;;;;;;12.97;6.03;;;;;;;-0.39;100.00;98841.25;5035655;28;20284;-78
2021/01/24 09:09:32;;;;;;;13.03;5.63;;;;;;;-0.37;100.00;98829.25;5019788;28;20302;-78
2021/01/24 09:12:00;;;;;;;13.00;6.33;;;;;;;-0.38;100.00;98840.41;5039810;28;20201;-78
2021/01/24 09:14:26;;;;;;;15.53;8.03;;;;;;;-0.39;100.00;98839.56;5032111;28;20206;-78
2021/01/24 09:17:00;;;;;;;23.00;9.73;;;;;;;-0.39;100.00;98837.00;5030090;28;20217;-78
2021/01/24 09:19:26;;;;;;;22.40;10.77;;;;;;;-0.41;100.00;98836.13;5031190;28;20239;-78
2021/01/24 09:21:52;;;;;;;15.10;7.53;;;;;;;-0.40;100.00;98835.28;5037145;28;20217;-77
2021/01/24 09:24:18;;;;;;;19.37;7.87;;;;;;;-0.36;100.00;98843.78;5033193;28;20227;-78
2021/01/24 09:26:45;;;;;;;23.17;10.53;;;;;;;-0.36;100.00;98842.94;5017706;28;20293;-77
2021/01/24 09:29:11;;;;;;;23.50;10.43;;;;;;;-0.32;100.00;98842.03;5037173;28;20514;-77
2021/01/24 09:31:37;;;;;;;22.63;8.30;;;;;;;-0.30;100.00;98843.72;5026811;28;20221;-80
2021/01/24 09:34:03;;;;;;;19.70;9.07;;;;;;;-0.25;100.00;98843.66;5045267;28;20200;-80
2021/01/24 09:36:29;;;;;;;15.20;7.87;;;;;;;-0.26;100.00;98840.25;5038924;28;20221;-79
2021/01/24 09:38:55;;;;;;;19.10;9.67;;;;;;;-0.22;100.00;98839.34;5030268;28;20248;-79
2021/01/24 09:41:20;;;;;;;24.33;10.80;;;;;;;-0.22;100.00;98836.78;5031257;28;20254;-80
2021/01/24 09:43:46;;;;;;;25.23;10.90;;;;;;;-0.21;100.00;98835.94;5030290;28;20209;-79
2021/01/24 09:46:13;;;;;;;25.87;10.87;;;;;;;-0.23;100.00;98831.69;5031098;28;20220;-80
2021/01/24 09:48:39;;;;;;;13.83;6.83;;;;;;;-0.23;100.00;98826.56;5031014;28;20235;-80
2021/01/24 09:51:08;;;;;;;14.53;7.40;;;;;;;-0.17;100.00;98828.22;5026877;28;20213;-80
2021/01/24 09:53:36;;;;;;;14.63;6.60;;;;;;;-0.17;100.00;98828.22;5029899;28;20218;-80
2021/01/24 09:56:03;;;;;;;14.27;7.93;;;;;;;-0.19;100.00;98828.25;5030079;28;20646;-80
2021/01/24 09:58:29;;;;;;;16.43;9.20;;;;;;;-0.16;100.00;98828.19;5027775;28;20223;-78
2021/01/24 10:00:55;;;;;;;15.90;8.60;;;;;;;-0.12;100.00;98827.31;5032385;28;20201;-78
2021/01/24 10:03:21;;;;;;;26.63;14.43;;;;;;;-0.09;100.00;98827.28;5029190;28;20251;-78
2021/01/24 10:05:47;;;;;;;19.30;10.30;;;;;;;-0.06;100.00;98826.38;5027801;28;20215;-78
2021/01/24 10:08:13;;;;;;;19.57;10.37;;;;;;;0.03;100.00;98820.31;5026631;28;20705;-77
2021/01/24 10:10:39;;;;;;;16.87;8.57;;;;;;;0.01;100.00;98822.88;5030639;28;20205;-78
2021/01/24 10:13:05;;;;;;;13.93;7.63;;;;;;;0.05;100.00;98810.88;5032923;28;20245;-78
2021/01/24 10:15:31;;;;;;;11.30;6.80;;;;;;;0.03;100.00;98820.31;5024918;28;20235;-78
2021/01/24 10:17:56;;;;;;;12.23;6.97;;;;;;;0.06;100.00;98820.28;5017599;28;20206;-78
2021/01/24 10:20:23;;;;;;;14.63;6.80;;;;;;;0.02;100.00;98818.59;5029482;28;20210;-77
2021/01/24 10:22:49;;;;;;;13.33;6.90;;;;;;;0.01;100.00;98814.34;5027012;28;20804;-78
2021/01/24 10:25:15;;;;;;;15.87;8.47;;;;;;;0.09;100.00;98817.66;5027074;28;20229;-78
2021/01/24 10:27:42;;;;;;;13.97;6.97;;;;;;;0.06;100.00;98812.59;5023483;28;20246;-78
2021/01/24 10:30:09;;;;;;;17.57;8.73;;;;;;;0.10;100.00;98819.34;5025535;28;20877;-78
2021/01/24 10:32:39;;;;;;;37.30;17.93;;;;;;;0.04;100.00;98817.72;5028590;28;20210;-77
2021/01/24 10:35:06;;;;;;;25.10;13.53;;;;;;;0.07;100.00;98809.13;5029443;28;20294;-78
2021/01/24 10:37:33;;;;;;;30.67;18.30;;;;;;;0.06;100.00;98815.97;5028509;28;20221;-78
2021/01/24 10:39:59;;;;;;;14.53;8.37;;;;;;;0.02;100.00;98811.78;5026852;28;20224;-77
2021/01/24 10:42:25;;;;;;;12.97;7.60;;;;;;;0.06;100.00;98815.16;5030001;28;20214;-77
2021/01/24 10:44:51;;;;;;;19.37;10.60;;;;;;;0.06;100.00;98810.84;5029247;28;20211;-78
2021/01/24 10:47:16;;;;;;;13.70;8.33;;;;;;;0.06;100.00;98815.16;5029767;28;20214;-77
2021/01/24 10:49:42;;;;;;;11.80;6.30;;;;;;;0.04;100.00;98806.63;5028581;28;20207;-78
2021/01/24 10:52:09;;;;;;;16.30;10.00;;;;;;;0.07;100.00;98801.44;5027079;28;20590;-77
2021/01/24 10:54:36;;;;;;;14.67;8.23;;;;;;;0.07;100.00;98817.69;5029786;28;20196;-77
2021/01/24 10:57:02;;;;;;;13.07;6.43;;;;;;;-0.02;100.00;98805.84;5025442;28;20214;-78
2021/01/24 10:59:28;;;;;;;13.03;6.53;;;;;;;0.00;100.00;98803.25;5026733;28;20668;-77
2021/01/24 11:01:54;;;;;;;14.30;7.00;;;;;;;0.00;100.00;98803.25;5026857;28;20219;-77
2021/01/24 11:04:20;;;;;;;14.17;7.00;;;;;;;-0.02;100.00;98810.97;5024343;28;20249;-77
2021/01/24 11:06:46;;;;;;;12.67;6.70;;;;;;;-0.02;100.00;98800.72;5023787;28;20211;-78
2021/01/24 11:09:12;;;;;;;15.10;6.57;;;;;;;-0.02;100.00;98813.53;5026317;28;20546;-76
2021/01/24 11:11:38;;;;;;;15.67;7.47;;;;;;;0.03;100.00;98803.19;5026908;28;20203;-77
2021/01/24 11:14:04;;;;;;;10.03;6.67;;;;;;;0.05;100.00;98798.91;5021900;28;20208;-77
2021/01/24 11:16:30;;;;;;;17.10;8.57;;;;;;;0.10;100.00;98806.53;5027030;28;20226;-78
2021/01/24 11:18:56;;;;;;;14.53;7.07;;;;;;;0.09;100.00;98800.56;5021967;28;20214;-77